GIA009 WAHI-WIII
Flight info
| Callsign | GIA009 |
|---|---|
| Flight time | N/A |
| Altitude | 36000 |
| Route | CA W17S IMU |
| Aircraft | B738/M-SDE2E3FGHIRWXY/LB1 |
Departure
| Time | 2026-05-07 15:15 |
|---|---|
| Airport | Yogyakarta International Airport (WAHI) |
Arrival
| Time | N/A |
|---|---|
| Airport | Soekarno-Hatta International Airport (WIII) |
| Time | Latitude | Longitude | Altitude | Speed | Heading |
|---|---|---|---|---|---|
| 2026-05-07 14:56 | -7.90139 | 110.05945 | 37 ft | 0 kts | 21° |
| 2026-05-07 15:07 | -7.90162 | 110.05937 | 37 ft | 4 kts | 17° |
| 2026-05-07 15:08 | -7.90188 | 110.05930 | 35 ft | 4 kts | 10° |
| 2026-05-07 15:08 | -7.90215 | 110.05927 | 33 ft | 4 kts | 357° |
| 2026-05-07 15:08 | -7.90239 | 110.05933 | 33 ft | 4 kts | 314° |
| 2026-05-07 15:08 | -7.90246 | 110.05943 | 34 ft | 1 kts | 290° |
| 2026-05-07 15:09 | -7.90247 | 110.05944 | 34 ft | 0 kts | 290° |
| 2026-05-07 15:10 | -7.90235 | 110.05913 | 35 ft | 11 kts | 290° |
| 2026-05-07 15:11 | -7.90209 | 110.05820 | 37 ft | 15 kts | 262° |
| 2026-05-07 15:11 | -7.90297 | 110.05763 | 36 ft | 15 kts | 199° |
| 2026-05-07 15:11 | -7.90335 | 110.05684 | 37 ft | 14 kts | 284° |
| 2026-05-07 15:11 | -7.90298 | 110.05580 | 34 ft | 18 kts | 291° |
| 2026-05-07 15:12 | -7.90244 | 110.05422 | 33 ft | 29 kts | 288° |
| 2026-05-07 15:12 | -7.90161 | 110.05206 | 29 ft | 36 kts | 290° |
| 2026-05-07 15:12 | -7.90075 | 110.04968 | 30 ft | 34 kts | 289° |
| 2026-05-07 15:12 | -7.90001 | 110.04768 | 32 ft | 23 kts | 289° |
| 2026-05-07 15:13 | -7.89947 | 110.04619 | 33 ft | 22 kts | 290° |
| 2026-05-07 15:13 | -7.89893 | 110.04474 | 31 ft | 22 kts | 291° |
| 2026-05-07 15:13 | -7.89854 | 110.04357 | 32 ft | 12 kts | 277° |
| 2026-05-07 15:13 | -7.89910 | 110.04314 | 32 ft | 12 kts | 169° |
| 2026-05-07 15:14 | -7.89983 | 110.04348 | 33 ft | 10 kts | 158° |
| 2026-05-07 15:14 | -7.90032 | 110.04367 | 34 ft | 2 kts | 126° |
| 2026-05-07 15:14 | -7.90036 | 110.04379 | 34 ft | 2 kts | 113° |
| 2026-05-07 15:14 | -7.90093 | 110.04535 | 32 ft | 65 kts | 110° |
| 2026-05-07 15:15 | -7.90349 | 110.05231 | 33 ft | 143 kts | 111° |
| 2026-05-07 15:15 | -7.90763 | 110.06290 | 532 ft | 172 kts | 117° |
| 2026-05-07 15:15 | -7.91259 | 110.07411 | 1308 ft | 178 kts | 116° |
| 2026-05-07 15:15 | -7.92183 | 110.08265 | 1981 ft | 194 kts | 160° |
| 2026-05-07 15:16 | -7.93550 | 110.08422 | 2693 ft | 201 kts | 171° |
| 2026-05-07 15:16 | -7.94967 | 110.08529 | 3347 ft | 208 kts | 172° |
| 2026-05-07 15:16 | -7.96436 | 110.08649 | 4019 ft | 214 kts | 172° |
| 2026-05-07 15:16 | -7.97943 | 110.08640 | 4681 ft | 224 kts | 195° |
| 2026-05-07 15:17 | -7.99217 | 110.07743 | 5370 ft | 230 kts | 233° |
| 2026-05-07 15:17 | -7.99809 | 110.06248 | 6076 ft | 234 kts | 265° |
| 2026-05-07 15:17 | -7.99568 | 110.04640 | 6742 ft | 234 kts | 297° |
| 2026-05-07 15:17 | -7.98678 | 110.03272 | 7435 ft | 234 kts | 311° |
| 2026-05-07 15:18 | -7.97614 | 110.02017 | 8116 ft | 237 kts | 313° |
| 2026-05-07 15:18 | -7.96505 | 110.00772 | 8806 ft | 240 kts | 315° |
| 2026-05-07 15:18 | -7.95380 | 109.99521 | 9504 ft | 242 kts | 314° |
| 2026-05-07 15:18 | -7.94242 | 109.98252 | 10183 ft | 244 kts | 314° |
| 2026-05-07 15:19 | -7.93102 | 109.96972 | 10824 ft | 246 kts | 314° |
| 2026-05-07 15:19 | -7.91958 | 109.95681 | 11478 ft | 247 kts | 313° |
| 2026-05-07 15:19 | -7.90829 | 109.94400 | 12136 ft | 247 kts | 313° |
| 2026-05-07 15:19 | -7.89690 | 109.93105 | 12778 ft | 249 kts | 313° |
| 2026-05-07 15:20 | -7.88491 | 109.91739 | 13007 ft | 271 kts | 312° |
| 2026-05-07 15:20 | -7.87219 | 109.90287 | 13508 ft | 278 kts | 312° |
| 2026-05-07 15:20 | -7.85931 | 109.88813 | 14099 ft | 282 kts | 311° |
| 2026-05-07 15:20 | -7.84630 | 109.87322 | 14666 ft | 285 kts | 311° |
| 2026-05-07 15:21 | -7.83313 | 109.85812 | 15245 ft | 288 kts | 311° |
| 2026-05-07 15:21 | -7.81981 | 109.84285 | 15831 ft | 291 kts | 311° |
| 2026-05-07 15:21 | -7.80643 | 109.82749 | 16433 ft | 293 kts | 310° |
| 2026-05-07 15:21 | -7.79293 | 109.81199 | 17045 ft | 294 kts | 310° |
| 2026-05-07 15:22 | -7.77938 | 109.79644 | 17666 ft | 296 kts | 310° |
| 2026-05-07 15:22 | -7.77038 | 109.78611 | 18090 ft | 296 kts | 310° |
| 2026-05-07 15:22 | -7.75231 | 109.76538 | 18823 ft | 296 kts | 310° |
| 2026-05-07 15:22 | -7.73869 | 109.74974 | 19382 ft | 296 kts | 310° |
| 2026-05-07 15:23 | -7.72950 | 109.73920 | 19764 ft | 296 kts | 310° |
| 2026-05-07 15:23 | -7.71606 | 109.72379 | 20334 ft | 295 kts | 310° |
| 2026-05-07 15:23 | -7.70692 | 109.71330 | 20724 ft | 295 kts | 310° |